Time;durP1;ratioP1;P1;durP2;ratioP2;P2;SDS_P1;SDS_P2;PMS_P1;PMS_P2;Temp;Humidity;BMP_temperature;BMP_pressure;BME280_temperature;BME280_humidity;BME280_pressure;Samples;Min_cycle;Max_cycle;Signal;HPM_P1;HPM_P2
2021/12/05 00:23:10;;;;;;;28.08;10.23;;;;;;;6.69;55.40;93141.56;4959857;28;20040;-88
2021/12/05 00:25:37;;;;;;;21.33;9.00;;;;;;;6.93;55.44;93177.41;4945925;28;20081;-86
2021/12/05 00:39:13;;;;;;;22.65;10.30;;;;;;;7.12;53.34;93172.66;4956274;28;20096;-85
2021/12/05 00:42:23;;;;;;;24.17;10.85;;;;;;;6.79;54.25;93149.22;4961689;28;20038;-87
2021/12/05 01:08:50;;;;;;;24.52;11.73;;;;;;;6.02;56.05;93117.84;4965107;28;20090;-87
2021/12/05 01:16:23;;;;;;;27.35;11.30;;;;;;;6.13;55.49;93133.44;4963095;28;20049;-87
2021/12/05 01:18:51;;;;;;;21.35;10.23;;;;;;;6.24;55.74;93146.16;4962893;28;20038;-85
2021/12/05 01:21:20;;;;;;;21.83;10.05;;;;;;;4.39;55.37;92852.28;4948785;28;20482;-87
2021/12/05 01:23:57;;;;;;;21.98;9.88;;;;;;;6.32;55.43;93148.03;4959910;28;21842;-87
2021/12/05 01:26:36;;;;;;;23.00;10.68;;;;;;;6.23;55.68;93143.78;4966486;28;20043;-87
2021/12/05 01:34:49;;;;;;;31.42;12.10;;;;;;;5.75;54.60;93007.19;4960650;28;20387;-88
2021/12/05 01:45:12;;;;;;;25.95;11.38;;;;;;;5.90;55.75;93101.81;4963350;28;20057;-86
2021/12/05 02:09:36;;;;;;;23.73;12.23;;;;;;;5.63;56.74;93103.78;4958635;28;20019;-85
2021/12/05 02:34:17;;;;;;;25.67;12.23;;;;;;;5.87;58.49;93152.53;4965031;28;20035;-87
2021/12/05 02:39:40;;;;;;;22.40;11.20;;;;;;;5.28;59.55;93065.81;4963058;28;20105;-87
2021/12/05 02:42:16;;;;;;;26.02;11.50;;;;;;;5.17;59.64;93038.09;4943846;28;20407;-87
2021/12/05 02:44:45;;;;;;;24.15;11.07;;;;;;;5.96;59.46;93134.13;4953315;28;20278;-86
2021/12/05 02:47:15;;;;;;;24.95;11.82;;;;;;;4.67;59.30;92914.31;4957870;28;20035;-87
2021/12/05 02:49:47;;;;;;;24.17;10.55;;;;;;;4.22;58.60;92829.97;4945492;28;20046;-86
2021/12/05 02:52:24;;;;;;;22.20;9.95;;;;;;;5.16;58.63;92975.91;4937637;28;20450;-88
2021/12/05 02:54:53;;;;;;;20.73;9.48;;;;;;;4.84;58.91;92948.72;4942116;28;20073;-88
2021/12/05 02:57:28;;;;;;;18.70;9.38;;;;;;;5.87;59.41;93115.56;4944054;28;20030;-87
2021/12/05 02:59:57;;;;;;;23.40;10.98;;;;;;;4.18;58.64;92823.75;4955372;28;20022;-87
2021/12/05 03:02:29;;;;;;;15.13;9.68;;;;;;;4.77;58.46;92914.09;4965893;28;20043;-87
2021/12/05 03:04:58;;;;;;;20.90;10.65;;;;;;;4.70;59.29;92937.41;4961095;28;20034;-87
2021/12/05 03:07:27;;;;;;;19.20;9.77;;;;;;;4.40;60.18;92893.34;4941501;28;20130;-86
2021/12/05 03:09:53;;;;;;;23.98;10.77;;;;;;;6.24;59.57;93134.81;4963336;28;20066;-87
2021/12/05 03:12:19;;;;;;;21.02;10.20;;;;;;;6.18;58.93;93115.66;4960272;28;20111;-87
2021/12/05 03:14:47;;;;;;;23.95;10.73;;;;;;;5.63;58.65;93012.22;4968274;28;20030;-86
2021/12/05 03:17:13;;;;;;;23.17;9.50;;;;;;;5.44;58.85;92982.63;4966007;28;20395;-87
2021/12/05 03:19:38;;;;;;;19.27;10.02;;;;;;;5.39;59.21;92982.72;4960232;28;20043;-87
2021/12/05 03:22:04;;;;;;;20.27;10.57;;;;;;;6.33;58.91;93090.72;4960296;28;20031;-88
2021/12/05 03:24:30;;;;;;;20.27;9.27;;;;;;;6.33;58.89;93091.50;4955869;28;20069;-87
2021/12/05 03:26:56;;;;;;;21.58;11.30;;;;;;;5.80;58.27;92990.44;4960662;28;20026;-86
2021/12/05 03:29:23;;;;;;;19.25;10.55;;;;;;;6.66;58.01;93121.03;4962013;28;20150;-87
2021/12/05 03:31:53;;;;;;;18.73;9.73;;;;;;;5.35;57.76;92910.59;4958382;28;20673;-86
2021/12/05 03:34:19;;;;;;;21.17;10.93;;;;;;;6.04;57.76;93006.69;4963418;28;20081;-88
2021/12/05 03:36:48;;;;;;;25.58;10.45;;;;;;;6.41;57.97;93082.06;4943133;28;20035;-88
2021/12/05 03:39:15;;;;;;;23.27;10.88;;;;;;;4.45;59.24;92845.84;4964732;28;20370;-87
2021/12/05 03:41:43;;;;;;;22.27;10.40;;;;;;;4.70;61.04;92924.25;4960368;28;20060;-87
2021/12/05 03:44:13;;;;;;;28.73;12.35;;;;;;;6.23;60.23;93104.97;4942723;28;20210;-87
2021/12/05 03:46:39;;;;;;;27.38;10.35;;;;;;;3.83;61.29;92791.09;4960991;28;20042;-86
2021/12/05 03:49:09;;;;;;;22.30;10.93;;;;;;;6.20;60.33;93081.81;4960650;28;20124;-87
2021/12/05 03:51:40;;;;;;;19.73;10.82;;;;;;;6.62;59.54;93122.72;4954322;28;20173;-88
2021/12/05 03:54:08;;;;;;;20.90;9.95;;;;;;;6.34;59.01;93060.59;4959588;28;20027;-85
2021/12/05 03:56:38;;;;;;;22.80;12.70;;;;;;;4.86;58.85;92832.47;4958752;28;20392;-88
2021/12/05 03:59:07;;;;;;;19.27;10.43;;;;;;;6.80;58.63;93118.25;4945751;28;20098;-87
2021/12/05 04:01:38;;;;;;;22.85;11.48;;;;;;;4.84;57.86;92798.53;4961381;28;20043;-87
2021/12/05 04:04:07;;;;;;;22.50;10.60;;;;;;;6.93;57.82;93119.25;4960996;28;20066;-87
2021/12/05 04:06:34;;;;;;;21.45;10.35;;;;;;;6.96;57.72;93113.34;4958271;28;20477;-87
2021/12/05 04:09:04;;;;;;;22.77;10.50;;;;;;;7.08;57.25;93108.25;4960887;28;20023;-87
2021/12/05 04:11:36;;;;;;;19.58;12.15;;;;;;;5.52;56.39;92856.09;4954742;28;20066;-87
2021/12/05 04:14:05;;;;;;;18.55;9.35;;;;;;;5.47;56.12;92850.19;4939504;28;20043;-88
2021/12/05 04:16:31;;;;;;;22.45;10.02;;;;;;;5.93;56.17;92923.59;4958817;28;20057;-87
2021/12/05 04:18:57;;;;;;;18.13;9.43;;;;;;;6.07;56.49;92978.94;4962262;28;20634;-88
2021/12/05 04:21:23;;;;;;;21.85;11.10;;;;;;;5.77;56.65;92923.25;4946479;28;20023;-88
2021/12/05 04:23:48;;;;;;;18.27;9.70;;;;;;;6.52;56.28;93051.66;4951913;28;20041;-88
2021/12/05 04:26:15;;;;;;;16.98;8.10;;;;;;;6.23;56.12;93009.91;4966179;28;20046;-88
2021/12/05 04:28:41;;;;;;;22.38;11.63;;;;;;;6.97;56.46;93120.97;4946891;28;20039;-87
2021/12/05 04:31:09;;;;;;;18.30;10.82;;;;;;;5.91;56.27;92968.78;4944180;28;20042;-87
2021/12/05 04:33:37;;;;;;;27.05;12.65;;;;;;;6.12;57.18;93032.34;4965752;28;20321;-87
2021/12/05 04:36:05;;;;;;;18.95;10.68;;;;;;;4.63;57.17;92802.75;4951066;28;20035;-87
2021/12/05 04:38:31;;;;;;;24.33;10.90;;;;;;;6.31;57.41;93074.44;4966011;28;20069;-87
2021/12/05 04:40:58;;;;;;;19.60;10.60;;;;;;;4.60;59.35;92900.78;4964549;28;20043;-88
2021/12/05 04:43:24;;;;;;;21.83;10.52;;;;;;;5.70;58.32;93009.94;4961006;28;20042;-85
2021/12/05 04:45:49;;;;;;;21.30;10.23;;;;;;;5.82;57.64;93015.44;4961834;28;20038;-88
2021/12/05 04:48:16;;;;;;;24.30;11.70;;;;;;;5.72;57.67;93002.50;4962186;28;20049;-87
2021/12/05 04:50:44;;;;;;;23.45;11.20;;;;;;;4.90;56.96;92841.31;4948331;28;20029;-87
2021/12/05 04:53:10;;;;;;;20.58;10.60;;;;;;;6.54;57.10;93104.97;4946029;28;20105;-87
2021/12/05 04:55:37;;;;;;;20.48;12.38;;;;;;;6.58;57.11;93108.56;4966081;28;20530;-88
2021/12/05 04:58:06;;;;;;;22.98;11.02;;;;;;;6.76;57.49;93141.09;4941037;28;20146;-87
2021/12/05 05:00:39;;;;;;;23.92;11.32;;;;;;;6.54;57.41;93110.25;4949500;28;20038;-87
2021/12/05 05:03:07;;;;;;;26.92;12.57;;;;;;;5.93;56.95;92998.25;4944622;28;20583;-87
2021/12/05 05:05:34;;;;;;;26.25;12.23;;;;;;;5.68;56.48;92945.34;4975319;28;20054;-87
2021/12/05 05:08:00;;;;;;;24.30;11.55;;;;;;;6.43;56.96;93085.19;4957366;28;20121;-88
2021/12/05 05:10:28;;;;;;;23.58;11.90;;;;;;;6.89;57.27;93156.09;4946157;28;20133;-88
2021/12/05 05:12:54;;;;;;;22.20;12.77;;;;;;;6.14;57.18;93034.69;4959892;28;20078;-88
2021/12/05 05:15:24;;;;;;;27.15;12.48;;;;;;;6.31;57.24;93077.06;4963898;28;20058;-87
2021/12/05 05:17:51;;;;;;;21.17;12.07;;;;;;;6.88;57.08;93159.03;4963566;28;20632;-88
2021/12/05 05:21:00;;;;;;;24.60;10.55;;;;;;;6.74;56.71;93133.50;4945972;28;20035;-87
2021/12/05 05:29:05;;;;;;;32.38;15.40;;;;;;;5.98;57.25;93013.97;4962275;28;20166;-88
2021/12/05 05:39:44;;;;;;;31.92;13.60;;;;;;;6.26;58.05;93091.16;4963730;28;20053;-88
2021/12/05 05:47:35;;;;;;;32.25;11.98;;;;;;;6.45;59.42;93158.84;4962295;28;20447;-88
2021/12/05 05:50:01;;;;;;;25.42;11.95;;;;;;;6.36;59.77;93164.09;4964721;28;20050;-88
2021/12/05 05:52:28;;;;;;;32.83;14.77;;;;;;;5.96;60.32;93161.31;4946919;28;20407;-87
2021/12/05 05:54:57;;;;;;;28.98;14.55;;;;;;;4.86;66.20;93152.03;4947012;28;20043;-87
2021/12/05 05:57:27;;;;;;;25.42;14.00;;;;;;;4.85;66.02;93118.84;4933847;28;20178;-86
2021/12/05 06:00:04;;;;;;;34.75;14.80;;;;;;;5.16;66.44;93158.56;4940789;28;20069;-88
2021/12/05 06:05:14;;;;;;;31.50;14.75;;;;;;;5.71;63.60;93137.34;4963557;28;20205;-88
2021/12/05 06:07:45;;;;;;;41.88;17.55;;;;;;;5.96;62.08;93129.63;4961733;28;20030;-87
2021/12/05 06:10:13;;;;;;;38.22;16.92;;;;;;;6.43;61.15;93167.06;4959276;28;20114;-87
2021/12/05 06:12:41;;;;;;;36.67;16.75;;;;;;;6.49;60.55;93162.44;4937381;28;20491;-85
2021/12/05 06:15:10;;;;;;;40.55;17.02;;;;;;;6.38;60.55;93151.34;4946840;28;20345;-87
2021/12/05 06:17:36;;;;;;;30.98;15.65;;;;;;;6.42;61.16;93173.44;4964636;28;20018;-88
2021/12/05 06:20:10;;;;;;;43.80;17.80;;;;;;;5.70;59.99;93028.41;4953149;28;20867;-88
2021/12/05 06:22:36;;;;;;;37.70;17.13;;;;;;;6.67;59.47;93158.78;4960303;28;20047;-88
2021/12/05 06:25:04;;;;;;;32.65;17.02;;;;;;;6.73;59.58;93192.72;4963132;28;20050;-87
2021/12/05 06:27:30;;;;;;;40.50;16.90;;;;;;;6.37;59.52;93104.88;4956698;28;20039;-88
2021/12/05 06:30:07;;;;;;;28.38;13.40;;;;;;;6.38;58.40;93086.09;4965701;28;20031;-87
2021/12/05 06:36:51;;;;;;;32.83;14.32;;;;;;;7.08;58.08;93169.06;4939670;28;20497;-86
2021/12/05 06:41:18;;;;;;;33.92;14.82;;;;;;;7.03;57.93;93182.44;4944213;28;20225;-86
2021/12/05 06:48:46;;;;;;;29.33;13.18;;;;;;;6.89;58.43;93202.91;4936169;28;20047;-87
2021/12/05 06:51:14;;;;;;;29.25;17.15;;;;;;;6.47;58.67;93133.69;4943055;28;20027;-86
2021/12/05 06:53:40;;;;;;;33.05;17.73;;;;;;;7.13;58.51;93232.41;4942446;28;20480;-86
2021/12/05 06:56:07;;;;;;;37.35;17.13;;;;;;;6.94;59.45;93237.13;4946680;28;20559;-86
2021/12/05 06:58:37;;;;;;;28.52;13.70;;;;;;;4.97;59.13;92939.19;4947412;28;20100;-87
2021/12/05 07:01:10;;;;;;;30.63;14.38;;;;;;;6.11;59.39;93125.84;4940875;28;20050;-87
2021/12/05 07:03:39;;;;;;;33.10;14.32;;;;;;;5.97;59.89;93123.25;4938871;28;20681;-87
2021/12/05 07:06:18;;;;;;;31.25;15.38;;;;;;;4.89;59.60;92943.31;4943436;28;20408;-87
2021/12/05 07:08:43;;;;;;;37.35;18.55;;;;;;;5.40;59.08;93000.13;4945514;28;20480;-86
2021/12/05 07:42:45;;;;;;;32.45;16.15;;;;;;;6.94;60.05;93216.00;4920091;29;20039;-87
2021/12/05 07:45:19;;;;;;;35.25;15.93;;;;;;;5.85;63.20;93191.63;4918943;29;20042;-87
2021/12/05 07:47:50;;;;;;;37.07;17.37;;;;;;;5.60;65.33;93225.69;4920576;29;20655;-86
2021/12/05 07:50:17;;;;;;;34.53;16.80;;;;;;;5.99;65.49;93223.25;4927617;29;20042;-86
2021/12/05 07:52:48;;;;;;;28.67;15.40;;;;;;;5.81;65.56;93222.34;4936090;28;20071;-86
2021/12/05 07:55:19;;;;;;;41.45;16.08;;;;;;;6.12;65.13;93213.72;4936164;28;20131;-87
2021/12/05 07:58:11;;;;;;;31.30;14.48;;;;;;;5.76;64.51;93161.78;4928284;28;20138;-87
2021/12/05 08:16:49;;;;;;;33.05;13.50;;;;;;;5.86;65.64;93209.03;4932402;28;20050;-87
2021/12/05 08:19:17;;;;;;;34.25;17.33;;;;;;;6.42;64.14;93223.59;4929137;28;20155;-86
2021/12/05 08:21:42;;;;;;;41.92;17.85;;;;;;;6.46;63.17;93179.66;4925086;28;20035;-87
2021/12/05 08:24:08;;;;;;;41.17;19.02;;;;;;;6.71;62.44;93171.09;4916848;28;20055;-85
2021/12/05 08:26:35;;;;;;;37.20;17.65;;;;;;;6.94;61.71;93173.69;4926752;29;20040;-87
2021/12/05 08:32:34;;;;;;;39.05;18.23;;;;;;;5.58;62.32;93073.78;4927485;28;20054;-85
2021/12/05 08:34:44;;;;;;;23.63;13.38;;;;;;;4.43;65.89;93066.50;4945885;28;20043;-86
2021/12/05 08:45:53;;;;;;;25.80;13.90;;;;;;;5.41;69.25;93241.66;4937122;28;20043;-86
2021/12/05 09:51:20;;;;;;;16.80;8.25;;;;;;;4.38;70.88;93100.81;4957035;28;20075;-84
2021/12/05 10:15:17;;;;;;;15.98;8.40;;;;;;;6.86;61.42;93109.91;4959459;28;20038;-85
2021/12/05 10:37:50;;;;;;;19.73;9.73;;;;;;;6.64;62.12;93069.59;4959943;28;20454;-84
2021/12/05 10:40:21;;;;;;;23.63;7.47;;;;;;;5.96;62.21;93024.06;4941673;28;20157;-86
2021/12/05 10:42:52;;;;;;;15.82;8.00;;;;;;;6.16;62.91;92992.97;4958124;28;20441;-85
2021/12/05 10:45:32;;;;;;;13.80;6.65;;;;;;;6.59;63.18;93080.28;4934194;28;20030;-85
2021/12/05 10:48:00;;;;;;;16.92;6.22;;;;;;;5.81;61.30;92932.09;4949959;28;20035;-86
2021/12/05 10:50:38;;;;;;;14.88;7.57;;;;;;;7.17;61.05;93074.69;4929203;28;20050;-85
2021/12/05 10:53:39;;;;;;;14.20;7.53;;;;;;;7.15;60.24;93063.63;4956945;28;20031;-86
2021/12/05 10:56:26;;;;;;;13.20;8.57;;;;;;;6.35;60.44;92972.38;4954702;28;20563;-87
2021/12/05 10:58:57;;;;;;;20.08;7.63;;;;;;;7.21;58.91;92988.34;4937731;28;20047;-87
2021/12/05 11:01:33;;;;;;;14.75;7.97;;;;;;;7.66;58.44;93042.50;4950939;28;20057;-84
2021/12/05 11:04:09;;;;;;;19.98;8.82;;;;;;;7.67;58.23;93044.06;4956156;28;20098;-86
2021/12/05 11:06:52;;;;;;;14.65;8.13;;;;;;;7.17;58.54;93011.22;4950804;28;20506;-86
2021/12/05 11:09:42;;;;;;;18.23;9.60;;;;;;;7.18;58.47;92989.75;4937373;28;20061;-87
2021/12/05 11:12:16;;;;;;;15.65;7.60;;;;;;;7.59;57.76;93039.53;4955072;28;20030;-87
2021/12/05 11:14:48;;;;;;;14.90;8.33;;;;;;;7.59;56.96;93021.00;4954696;28;20042;-84
2021/12/05 11:17:19;;;;;;;20.38;8.50;;;;;;;6.98;58.80;93045.09;4941535;28;20303;-85
2021/12/05 11:19:52;;;;;;;17.60;8.43;;;;;;;7.01;59.37;93029.38;4952739;28;20038;-85
2021/12/05 11:22:22;;;;;;;14.38;8.52;;;;;;;5.94;59.27;92846.75;4934736;28;20483;-84
2021/12/05 11:25:06;;;;;;;18.80;9.07;;;;;;;6.84;59.18;93026.72;4934912;28;20287;-85
2021/12/05 11:27:36;;;;;;;20.40;9.02;;;;;;;6.68;60.56;93023.75;4948530;28;20541;-85
2021/12/05 11:30:35;;;;;;;15.75;7.95;;;;;;;6.70;60.20;93010.97;4949847;28;20062;-84
2021/12/05 11:33:07;;;;;;;13.63;7.47;;;;;;;6.72;59.94;93019.41;4951294;28;20050;-85
2021/12/05 11:35:42;;;;;;;14.27;6.65;;;;;;;7.02;59.26;93003.75;4935326;28;20125;-85
2021/12/05 11:38:07;;;;;;;17.13;6.93;;;;;;;6.65;59.66;93000.56;4958780;28;21043;-85
2021/12/05 11:40:47;;;;;;;12.30;7.05;;;;;;;6.45;60.31;92987.16;4956095;28;20285;-85
2021/12/05 11:43:36;;;;;;;16.17;7.93;;;;;;;6.42;60.32;92967.41;4951807;28;20057;-86
2021/12/05 11:46:17;;;;;;;14.38;7.75;;;;;;;6.51;60.08;92960.28;4953878;28;20039;-84
2021/12/05 11:48:47;;;;;;;19.80;8.77;;;;;;;7.39;59.04;92983.81;4935815;28;20615;-86
2021/12/05 11:51:19;;;;;;;16.30;7.70;;;;;;;7.79;57.22;92981.75;4941900;28;20105;-85
2021/12/05 11:53:49;;;;;;;14.77;7.13;;;;;;;7.54;57.75;92973.53;4959604;28;20030;-85
2021/12/05 11:56:29;;;;;;;18.52;8.27;;;;;;;7.49;57.03;92920.78;4939320;28;20062;-84
2021/12/05 11:59:24;;;;;;;15.35;8.80;;;;;;;7.06;57.95;92926.13;4952453;28;20058;-84
2021/12/05 12:01:59;;;;;;;15.07;8.18;;;;;;;7.97;56.69;92951.53;4954589;28;20129;-84
2021/12/05 12:04:50;;;;;;;18.77;8.07;;;;;;;8.00;56.38;92972.06;4944912;28;20042;-84
2021/12/05 12:07:35;;;;;;;14.75;8.20;;;;;;;8.05;56.40;92970.03;4931611;28;20047;-85
2021/12/05 12:10:23;;;;;;;14.90;8.20;;;;;;;8.76;54.69;92958.75;4939195;28;20093;-85
2021/12/05 12:13:08;;;;;;;20.60;8.45;;;;;;;7.79;55.55;92910.31;4957815;28;20050;-88
2021/12/05 12:15:35;;;;;;;10.45;6.88;;;;;;;8.19;55.35;92861.22;4959641;28;20050;-86
2021/12/05 12:18:09;;;;;;;15.00;8.52;;;;;;;8.30;54.33;92904.78;4942258;28;20110;-85
2021/12/05 12:20:38;;;;;;;13.80;8.38;;;;;;;8.92;54.22;92954.44;4955396;28;20077;-85
2021/12/05 12:23:04;;;;;;;13.55;8.07;;;;;;;9.08;53.34;92897.06;4942772;28;20066;-85
2021/12/05 12:25:34;;;;;;;15.90;8.02;;;;;;;9.27;52.97;92908.00;4958638;28;20246;-85
2021/12/05 12:28:02;;;;;;;12.80;7.30;;;;;;;9.33;52.85;92933.25;4958279;28;20046;-85
2021/12/05 12:30:30;;;;;;;16.45;8.43;;;;;;;8.37;53.53;92889.16;4957243;28;20050;-85
2021/12/05 12:33:04;;;;;;;18.20;9.48;;;;;;;8.22;54.25;92902.19;4957205;28;20062;-85
2021/12/05 12:35:33;;;;;;;;;;;;;;;8.65;54.14;92944.34;4948966;28;20047;-85
2021/12/05 12:38:08;;;;;;;17.42;8.48;;;;;;;8.30;54.83;92941.88;4959899;28;19921;-85
2021/12/05 12:40:55;;;;;;;15.32;8.05;;;;;;;8.98;53.61;92931.94;4946525;28;20042;-85
2021/12/05 12:43:38;;;;;;;13.00;7.72;;;;;;;9.25;52.20;92935.94;4959898;28;20118;-84
2021/12/05 12:46:16;;;;;;;20.67;8.52;;;;;;;8.84;53.92;92934.06;4956332;28;20243;-86
2021/12/05 12:48:41;;;;;;;21.00;9.25;;;;;;;8.66;54.30;92898.19;4959077;28;20113;-85
2021/12/05 12:51:07;;;;;;;16.80;8.38;;;;;;;9.12;53.37;92894.56;4962234;28;20075;-85
2021/12/05 12:53:37;;;;;;;16.75;7.50;;;;;;;9.26;53.11;92869.31;4957407;28;20207;-85
2021/12/05 12:56:09;;;;;;;14.38;7.65;;;;;;;8.91;51.60;92783.19;4959307;28;20069;-85
2021/12/05 12:58:42;;;;;;;11.38;7.00;;;;;;;8.91;51.72;92788.47;4956164;28;20043;-85
2021/12/05 13:01:17;;;;;;;12.50;6.90;;;;;;;8.53;51.91;92749.69;4958714;28;20124;-84
2021/12/05 13:12:34;;;;;;;19.23;7.90;;;;;;;9.43;52.23;92919.56;4953912;28;20511;-84
2021/12/05 13:15:08;;;;;;;15.13;7.45;;;;;;;9.39;51.98;92916.00;4942367;28;20026;-85
2021/12/05 13:17:43;;;;;;;14.40;7.57;;;;;;;9.01;52.15;92859.69;4949793;28;20121;-85
2021/12/05 13:20:12;;;;;;;14.40;8.30;;;;;;;9.21;51.98;92897.91;4935173;28;20475;-85
2021/12/05 13:23:02;;;;;;;15.48;7.00;;;;;;;9.51;51.71;92911.84;4963009;28;20461;-85
2021/12/05 13:25:30;;;;;;;10.48;6.65;;;;;;;9.46;51.76;92912.81;4931904;28;20047;-86
2021/12/05 13:28:32;;;;;;;12.68;8.18;;;;;;;8.45;51.24;92739.97;4960249;28;20031;-85
2021/12/05 13:31:00;;;;;;;15.38;7.25;;;;;;;9.43;51.26;92887.72;4968854;28;20047;-86
2021/12/05 13:33:31;;;;;;;12.38;6.72;;;;;;;9.42;51.54;92912.72;4970964;28;20510;-85
2021/12/05 13:35:58;;;;;;;19.70;8.02;;;;;;;9.41;51.12;92892.56;4966013;28;20471;-85
2021/12/05 13:38:39;;;;;;;17.25;8.77;;;;;;;8.63;51.52;92775.03;4964651;28;20058;-85
2021/12/05 13:41:19;;;;;;;10.90;6.18;;;;;;;8.58;51.45;92815.75;4956454;28;20412;-85
2021/12/05 13:44:01;;;;;;;14.93;6.65;;;;;;;8.70;51.86;92854.03;4958998;28;20031;-86
2021/12/05 13:46:31;;;;;;;12.77;7.05;;;;;;;9.02;52.46;92917.72;4963761;28;20035;-86
2021/12/05 13:48:57;;;;;;;16.70;7.38;;;;;;;7.89;52.67;92753.78;4964080;28;20118;-86
2021/12/05 13:51:24;;;;;;;10.85;6.70;;;;;;;8.22;52.57;92794.34;4941169;28;20058;-86
2021/12/05 13:53:51;;;;;;;11.35;7.38;;;;;;;9.02;52.44;92927.53;4963065;28;20065;-85
2021/12/05 13:56:25;;;;;;;13.30;8.20;;;;;;;7.32;52.64;92648.41;4965529;28;20035;-86
2021/12/05 13:59:01;;;;;;;12.05;7.65;;;;;;;9.17;52.38;92923.53;4941347;28;20611;-85
2021/12/05 14:01:43;;;;;;;19.45;7.57;;;;;;;7.88;52.12;92726.53;4943539;28;20133;-86
2021/12/05 14:04:23;;;;;;;17.85;8.25;;;;;;;9.20;51.93;92913.06;4942469;28;20049;-85
2021/12/05 14:06:59;;;;;;;17.85;9.60;;;;;;;9.18;52.18;92909.97;4944856;28;20048;-86
2021/12/05 14:09:44;;;;;;;10.73;6.10;;;;;;;9.31;52.02;92910.78;4944959;28;20459;-85
2021/12/05 14:12:13;;;;;;;14.57;6.40;;;;;;;9.29;51.60;92916.41;4935969;28;20030;-85
2021/12/05 14:15:00;;;;;;;14.70;6.90;;;;;;;9.39;51.52;92900.06;4959451;28;20443;-84
2021/12/05 14:17:40;;;;;;;13.45;7.32;;;;;;;9.42;51.33;92903.97;4962947;28;20077;-86
2021/12/05 14:20:12;;;;;;;11.93;7.18;;;;;;;9.38;51.20;92887.16;4958765;28;20120;-86
2021/12/05 14:22:41;;;;;;;15.13;7.75;;;;;;;8.90;51.03;92813.47;4957261;28;20051;-85
2021/12/05 14:25:10;;;;;;;14.05;7.55;;;;;;;9.65;50.79;92910.44;4936385;28;20038;-86
2021/12/05 14:27:42;;;;;;;19.67;10.73;;;;;;;9.15;51.37;92846.94;4977696;28;20050;-85
2021/12/05 14:30:11;;;;;;;12.38;7.10;;;;;;;9.35;51.79;92893.09;4966795;28;20481;-85
2021/12/05 14:32:43;;;;;;;12.95;7.65;;;;;;;9.29;51.85;92897.81;4975743;28;20168;-85
2021/12/05 14:35:12;;;;;;;18.98;10.13;;;;;;;9.22;51.74;92889.63;4960878;28;20630;-86
2021/12/05 14:37:40;;;;;;;17.27;8.43;;;;;;;9.25;51.75;92883.66;4963261;28;20039;-86
2021/12/05 14:40:09;;;;;;;15.57;8.88;;;;;;;8.83;51.59;92807.91;4955476;28;20047;-86
2021/12/05 14:42:38;;;;;;;12.52;7.35;;;;;;;9.22;51.61;92865.75;4963316;28;20137;-86
2021/12/05 14:45:09;;;;;;;15.68;8.30;;;;;;;9.11;51.48;92846.03;4960926;28;20023;-86
2021/12/05 14:47:36;;;;;;;15.43;9.38;;;;;;;9.37;51.02;92883.72;4947606;28;20487;-86
2021/12/05 14:50:15;;;;;;;10.75;7.43;;;;;;;9.38;50.88;92892.47;4958635;28;20038;-86
2021/12/05 14:52:43;;;;;;;13.65;8.05;;;;;;;8.47;50.99;92788.09;4942883;28;20035;-85
2021/12/05 14:55:12;;;;;;;17.02;8.95;;;;;;;9.25;51.37;92915.50;4952846;28;20461;-85
2021/12/05 14:57:47;;;;;;;14.27;8.32;;;;;;;8.35;51.56;92793.34;4944027;28;20043;-86
2021/12/05 15:00:23;;;;;;;16.40;9.02;;;;;;;7.85;51.51;92747.56;4942344;28;20072;-85
2021/12/05 15:02:57;;;;;;;16.85;9.13;;;;;;;6.90;52.45;92639.59;4958303;28;20063;-86
2021/12/05 15:05:23;;;;;;;15.30;8.40;;;;;;;7.97;52.26;92803.25;4958130;28;20057;-86
2021/12/05 15:07:58;;;;;;;13.48;6.95;;;;;;;7.84;52.34;92807.66;4959996;28;20370;-85
2021/12/05 15:10:24;;;;;;;13.35;6.53;;;;;;;6.77;52.42;92638.72;4939165;28;20140;-85
2021/12/05 15:12:56;;;;;;;8.20;5.72;;;;;;;7.86;52.54;92800.19;4954294;28;20039;-87
2021/12/05 15:15:25;;;;;;;9.65;5.75;;;;;;;8.19;52.38;92858.56;4943237;28;20116;-86
2021/12/05 15:17:51;;;;;;;12.35;6.38;;;;;;;6.77;52.07;92638.72;4955910;28;20034;-85
2021/12/05 15:20:23;;;;;;;13.10;6.53;;;;;;;7.69;52.28;92784.38;4958827;28;20077;-86
2021/12/05 15:23:15;;;;;;;13.50;7.47;;;;;;;8.47;52.56;92930.41;4955351;28;20034;-86
2021/12/05 15:25:43;;;;;;;20.75;10.52;;;;;;;8.41;52.63;92903.31;4957206;28;20046;-84
2021/12/05 15:28:11;;;;;;;12.23;7.80;;;;;;;8.56;52.18;92921.28;4943936;28;20448;-86
2021/12/05 15:30:38;;;;;;;18.42;7.72;;;;;;;8.44;52.65;92928.41;4941184;28;20051;-86
2021/12/05 15:33:13;;;;;;;9.30;5.47;;;;;;;7.55;52.22;92799.69;4936506;28;20054;-87
2021/12/05 15:35:39;;;;;;;13.23;7.93;;;;;;;6.16;52.65;92613.59;4937670;28;20047;-87
2021/12/05 15:38:06;;;;;;;12.35;6.55;;;;;;;8.08;53.60;92927.00;4939353;28;20457;-86
2021/12/05 15:40:40;;;;;;;11.90;7.38;;;;;;;7.86;53.62;92924.63;4953123;28;21029;-87
2021/12/05 15:43:12;;;;;;;14.68;7.80;;;;;;;6.79;53.19;92750.19;4931060;28;20304;-86
2021/12/05 15:45:39;;;;;;;12.52;6.65;;;;;;;6.81;53.05;92763.84;4947744;28;20125;-86
2021/12/05 15:48:05;;;;;;;15.48;8.32;;;;;;;7.11;53.25;92803.56;4939377;28;20110;-87
2021/12/05 15:50:33;;;;;;;16.00;9.10;;;;;;;7.79;54.04;92948.13;4935532;28;20518;-85
2021/12/05 15:53:07;;;;;;;16.35;8.95;;;;;;;7.65;54.72;92958.88;4936332;28;20369;-86
2021/12/05 15:55:39;;;;;;;19.15;8.55;;;;;;;6.93;54.48;92847.78;4940221;28;20070;-86
2021/12/05 15:58:09;;;;;;;21.40;11.73;;;;;;;6.73;55.26;92859.00;4951288;28;20269;-86
2021/12/05 16:00:43;;;;;;;15.88;10.07;;;;;;;4.71;56.41;92599.22;4933471;28;20062;-86
2021/12/05 16:03:17;;;;;;;28.17;14.70;;;;;;;4.93;57.56;92690.56;4937100;28;20042;-88
2021/12/05 16:05:45;;;;;;;19.08;11.50;;;;;;;5.71;57.77;92826.84;4938149;28;20019;-89
2021/12/05 16:08:17;;;;;;;22.63;10.82;;;;;;;5.38;58.22;92791.34;4927858;28;20397;-88
2021/12/05 16:10:49;;;;;;;26.50;12.52;;;;;;;6.70;58.30;92968.72;4939353;28;20644;-86
2021/12/05 16:13:20;;;;;;;25.25;12.38;;;;;;;5.25;57.76;92715.78;4940522;28;20042;-85
2021/12/05 16:15:54;;;;;;;23.23;11.98;;;;;;;6.59;57.65;92933.13;4935297;28;20038;-86
2021/12/05 16:18:30;;;;;;;37.15;18.58;;;;;;;6.65;58.15;92976.03;4942394;28;20067;-86
2021/12/05 16:21:02;;;;;;;37.40;18.55;;;;;;;5.33;58.61;92768.53;4944702;28;20051;-86
2021/12/05 16:23:32;;;;;;;34.42;16.15;;;;;;;6.27;59.21;92963.31;4946122;28;20419;-86
2021/12/05 16:26:06;;;;;;;31.83;14.30;;;;;;;5.27;60.74;92867.28;4941450;28;20031;-86
2021/12/05 16:28:45;;;;;;;26.83;15.20;;;;;;;6.23;59.21;92948.41;4942283;28;20039;-86
2021/12/05 16:31:13;;;;;;;27.52;15.40;;;;;;;6.57;58.45;92980.19;4943310;28;20054;-86
2021/12/05 16:33:40;;;;;;;33.78;15.15;;;;;;;5.69;57.43;92823.72;4954903;28;20102;-86
2021/12/05 16:36:06;;;;;;;32.22;16.02;;;;;;;6.08;57.01;92872.25;4942435;28;20031;-87
2021/12/05 16:38:39;;;;;;;40.70;19.88;;;;;;;5.73;57.10;92798.28;4941851;28;20595;-85
2021/12/05 16:41:28;;;;;;;28.27;16.13;;;;;;;7.03;56.34;92977.00;4943002;28;20073;-85
2021/12/05 16:43:57;;;;;;;34.33;16.23;;;;;;;6.71;57.23;92970.25;4940847;28;20226;-85
2021/12/05 16:46:33;;;;;;;46.97;18.60;;;;;;;5.76;60.09;92986.84;4942483;28;20039;-86
2021/12/05 16:49:02;;;;;;;45.90;21.02;;;;;;;5.77;60.10;92923.25;4945288;28;20031;-87
2021/12/05 16:51:47;;;;;;;41.67;20.42;;;;;;;6.33;58.84;92970.03;4943594;28;20039;-85
2021/12/05 16:54:20;;;;;;;27.65;13.65;;;;;;;6.54;57.90;92974.75;4939076;28;20772;-85
2021/12/05 16:56:51;;;;;;;23.52;13.10;;;;;;;6.35;57.63;92961.81;4936068;28;20039;-87
2021/12/05 16:59:36;;;;;;;25.13;14.07;;;;;;;5.36;58.00;92827.78;4943747;28;20078;-87
2021/12/05 17:02:10;;;;;;;29.13;15.20;;;;;;;6.43;58.40;92985.59;4939003;28;20035;-86
2021/12/05 17:04:49;;;;;;;26.55;16.05;;;;;;;4.62;57.53;92722.97;4946829;28;20789;-86
2021/12/05 17:07:35;;;;;;;33.67;16.98;;;;;;;5.92;57.82;92900.94;4953234;28;20363;-88
2021/12/05 17:10:01;;;;;;;26.38;15.15;;;;;;;6.37;57.42;92959.63;4941181;28;20035;-86
2021/12/05 17:12:30;;;;;;;37.92;19.08;;;;;;;6.35;56.96;92946.75;4940647;28;20044;-86
2021/12/05 17:15:20;;;;;;;35.45;17.50;;;;;;;6.39;56.90;92936.34;4941800;28;20018;-86
2021/12/05 17:17:49;;;;;;;32.30;16.88;;;;;;;6.06;56.40;92871.78;4942037;28;20051;-87
2021/12/05 17:20:21;;;;;;;33.35;18.80;;;;;;;6.68;57.09;92981.47;4942700;28;21218;-85